SDM6315 ULLI-URKK
Flight info
| Callsign | SDM6315 |
|---|---|
| Flight time | N/A |
| Altitude | 35000 |
| Route | SUGIN1B SUGIN T873 IRDEK L4 UPERI T833 TOGMO M56 ULKID/K0859F370 M56 ABAGI B105 NIMTA/K0856F360 B105 NATIT/K0848F370 DCT MOLED DCT LIDUS/K0841F360 G242 OMIRA/K0832F380 G242 ZG/K0837F370 DCT ITAKA/K0837F380 DCT OBBUD DCT AMKOL DCT GOTIK DCT MEMZA DCT VENFO DCT PROZR DCT MOBIT DCT DV DCT SM |
| Aircraft | A319/M-SDE3FGHIRWY/LB1 |
Departure
| Time | 2026-05-01 09:17 |
|---|---|
| Airport | Pulkovo Airport (ULLI) |
Arrival
| Time | N/A |
|---|---|
| Airport | Krasnodar Pashkovsky International Airport (URKK) |
| Time | Latitude | Longitude | Altitude | Speed | Heading |
|---|---|---|---|---|---|
| 2026-05-01 08:44 | 59.79744 | 30.26627 | 87 ft | 0 kts | 105° |
| 2026-05-01 09:02 | 59.79746 | 30.26617 | 87 ft | 2 kts | 105° |
| 2026-05-01 09:02 | 59.79749 | 30.26592 | 87 ft | 0 kts | 105° |
| 2026-05-01 09:02 | 59.79752 | 30.26571 | 87 ft | 2 kts | 92° |
| 2026-05-01 09:02 | 59.79750 | 30.26541 | 87 ft | 2 kts | 74° |
| 2026-05-01 09:03 | 59.79744 | 30.26514 | 87 ft | 2 kts | 56° |
| 2026-05-01 09:03 | 59.79734 | 30.26491 | 87 ft | 2 kts | 38° |
| 2026-05-01 09:03 | 59.79722 | 30.26477 | 87 ft | 1 kts | 20° |
| 2026-05-01 09:03 | 59.79716 | 30.26473 | 87 ft | 1 kts | 14° |
| 2026-05-01 09:04 | 59.79714 | 30.26472 | 87 ft | 0 kts | 15° |
| 2026-05-01 09:07 | 59.79724 | 30.26477 | 87 ft | 2 kts | 15° |
| 2026-05-01 09:07 | 59.79753 | 30.26493 | 87 ft | 5 kts | 16° |
| 2026-05-01 09:07 | 59.79802 | 30.26522 | 87 ft | 8 kts | 16° |
| 2026-05-01 09:07 | 59.79869 | 30.26562 | 87 ft | 11 kts | 16° |
| 2026-05-01 09:08 | 59.79955 | 30.26612 | 87 ft | 13 kts | 16° |
| 2026-05-01 09:08 | 59.80048 | 30.26667 | 86 ft | 14 kts | 16° |
| 2026-05-01 09:08 | 59.80152 | 30.26728 | 84 ft | 16 kts | 16° |
| 2026-05-01 09:08 | 59.80269 | 30.26797 | 82 ft | 18 kts | 17° |
| 2026-05-01 09:09 | 59.80369 | 30.26856 | 80 ft | 7 kts | 17° |
| 2026-05-01 09:09 | 59.80383 | 30.26952 | 79 ft | 8 kts | 106° |
| 2026-05-01 09:09 | 59.80356 | 30.27135 | 80 ft | 12 kts | 106° |
| 2026-05-01 09:09 | 59.80338 | 30.27257 | 79 ft | 15 kts | 106° |
| 2026-05-01 09:10 | 59.80303 | 30.27492 | 78 ft | 18 kts | 106° |
| 2026-05-01 09:10 | 59.80267 | 30.27736 | 77 ft | 18 kts | 107° |
| 2026-05-01 09:10 | 59.80228 | 30.27993 | 76 ft | 19 kts | 106° |
| 2026-05-01 09:10 | 59.80189 | 30.28256 | 74 ft | 20 kts | 106° |
| 2026-05-01 09:11 | 59.80150 | 30.28524 | 74 ft | 20 kts | 106° |
| 2026-05-01 09:11 | 59.80110 | 30.28789 | 73 ft | 20 kts | 106° |
| 2026-05-01 09:11 | 59.80069 | 30.29061 | 71 ft | 20 kts | 106° |
| 2026-05-01 09:11 | 59.80028 | 30.29341 | 71 ft | 20 kts | 106° |
| 2026-05-01 09:12 | 59.79988 | 30.29612 | 71 ft | 20 kts | 106° |
| 2026-05-01 09:12 | 59.79950 | 30.29866 | 74 ft | 18 kts | 106° |
| 2026-05-01 09:12 | 59.79939 | 30.30004 | 74 ft | 0 kts | 81° |
| 2026-05-01 09:13 | 59.79939 | 30.30005 | 74 ft | 0 kts | 81° |
| 2026-05-01 09:13 | 59.79943 | 30.30028 | 74 ft | 3 kts | 68° |
| 2026-05-01 09:14 | 59.79962 | 30.30079 | 74 ft | 5 kts | 46° |
| 2026-05-01 09:14 | 59.79996 | 30.30150 | 74 ft | 7 kts | 46° |
| 2026-05-01 09:14 | 59.80000 | 30.30159 | 74 ft | 0 kts | 46° |
| 2026-05-01 09:15 | 59.80005 | 30.30170 | 74 ft | 2 kts | 46° |
| 2026-05-01 09:15 | 59.80022 | 30.30205 | 74 ft | 4 kts | 46° |
| 2026-05-01 09:15 | 59.80050 | 30.30263 | 74 ft | 7 kts | 43° |
| 2026-05-01 09:16 | 59.80101 | 30.30296 | 74 ft | 9 kts | 343° |
| 2026-05-01 09:16 | 59.80126 | 30.30228 | 74 ft | 0 kts | 286° |
| 2026-05-01 09:17 | 59.80271 | 30.29251 | 71 ft | 101 kts | 287° |
| 2026-05-01 09:17 | 59.80530 | 30.27519 | 75 ft | 158 kts | 288° |
| 2026-05-01 09:17 | 59.81159 | 30.23166 | 1264 ft | 165 kts | 287° |
| 2026-05-01 09:18 | 59.81466 | 30.21005 | 1942 ft | 165 kts | 287° |
| 2026-05-01 09:18 | 59.82137 | 30.16576 | 2951 ft | 178 kts | 287° |
| 2026-05-01 09:19 | 59.82921 | 30.11375 | 3526 ft | 218 kts | 286° |
| 2026-05-01 09:19 | 59.83363 | 30.08384 | 3913 ft | 236 kts | 287° |
| 2026-05-01 09:19 | 59.83834 | 30.05169 | 4380 ft | 250 kts | 285° |
| 2026-05-01 09:20 | 59.83356 | 29.98485 | 5873 ft | 259 kts | 234° |
| 2026-05-01 09:20 | 59.80186 | 29.95022 | 7410 ft | 272 kts | 199° |
| 2026-05-01 09:21 | 59.76538 | 29.93183 | 9014 ft | 277 kts | 188° |
| 2026-05-01 09:21 | 59.74620 | 29.93710 | 9770 ft | 288 kts | 162° |
| 2026-05-01 09:21 | 59.71892 | 29.99564 | 10961 ft | 320 kts | 111° |
| 2026-05-01 09:22 | 59.70628 | 30.08566 | 11590 ft | 356 kts | 107° |
| 2026-05-01 09:22 | 59.69593 | 30.18543 | 12185 ft | 388 kts | 98° |
| 2026-05-01 09:23 | 59.69419 | 30.23965 | 12750 ft | 394 kts | 94° |
| 2026-05-01 09:23 | 59.69079 | 30.34801 | 13972 ft | 400 kts | 98° |
| 2026-05-01 09:24 | 59.68070 | 30.45709 | 15110 ft | 406 kts | 103° |
| 2026-05-01 09:24 | 59.67486 | 30.51169 | 15655 ft | 409 kts | 103° |
| 2026-05-01 09:24 | 59.66289 | 30.62262 | 16711 ft | 416 kts | 103° |
| 2026-05-01 09:25 | 59.65174 | 30.73528 | 17705 ft | 422 kts | 101° |
| 2026-05-01 09:25 | 59.64219 | 30.85054 | 18644 ft | 428 kts | 100° |
| 2026-05-01 09:26 | 59.63738 | 30.90871 | 19114 ft | 431 kts | 100° |
| 2026-05-01 09:26 | 59.62758 | 31.02602 | 19994 ft | 436 kts | 100° |
| 2026-05-01 09:26 | 59.62220 | 31.08469 | 20392 ft | 439 kts | 105° |
| 2026-05-01 09:27 | 59.59417 | 31.19191 | 21190 ft | 441 kts | 125° |
| 2026-05-01 09:27 | 59.57717 | 31.24225 | 21565 ft | 444 kts | 125° |
| 2026-05-01 09:27 | 59.56030 | 31.29293 | 21943 ft | 446 kts | 124° |
| 2026-05-01 09:28 | 59.54346 | 31.34480 | 22320 ft | 449 kts | 123° |
| 2026-05-01 09:28 | 59.52681 | 31.39712 | 22689 ft | 452 kts | 123° |
| 2026-05-01 09:28 | 59.51020 | 31.44988 | 23049 ft | 454 kts | 123° |
| 2026-05-01 09:28 | 59.49366 | 31.50276 | 23399 ft | 456 kts | 123° |
| 2026-05-01 09:29 | 59.46037 | 31.60940 | 24089 ft | 461 kts | 122° |
| 2026-05-01 09:29 | 59.44346 | 31.66348 | 24431 ft | 463 kts | 123° |
| 2026-05-01 09:30 | 59.40953 | 31.77198 | 25098 ft | 467 kts | 123° |
| 2026-05-01 09:30 | 59.39243 | 31.82648 | 25424 ft | 470 kts | 123° |
| 2026-05-01 09:30 | 59.35778 | 31.93632 | 26072 ft | 474 kts | 123° |
| 2026-05-01 09:31 | 59.34059 | 31.99062 | 26385 ft | 476 kts | 123° |
| 2026-05-01 09:31 | 59.32285 | 32.04646 | 26695 ft | 478 kts | 123° |
| 2026-05-01 09:31 | 59.28762 | 32.15697 | 27333 ft | 481 kts | 123° |
| 2026-05-01 09:32 | 59.27011 | 32.21174 | 27757 ft | 480 kts | 123° |
| 2026-05-01 09:32 | 59.23481 | 32.32177 | 28618 ft | 478 kts | 123° |
| 2026-05-01 09:32 | 59.21714 | 32.37664 | 29035 ft | 477 kts | 123° |
| 2026-05-01 09:33 | 59.19949 | 32.43136 | 29450 ft | 476 kts | 123° |
| 2026-05-01 09:33 | 59.18198 | 32.48548 | 29863 ft | 475 kts | 123° |
| 2026-05-01 09:33 | 59.14653 | 32.59471 | 30694 ft | 474 kts | 123° |
| 2026-05-01 09:34 | 59.12893 | 32.64879 | 31102 ft | 473 kts | 123° |
| 2026-05-01 09:34 | 59.11136 | 32.70270 | 31504 ft | 472 kts | 124° |
| 2026-05-01 09:34 | 59.07616 | 32.81046 | 32287 ft | 471 kts | 124° |
| 2026-05-01 09:35 | 59.05866 | 32.86382 | 32662 ft | 470 kts | 124° |
| 2026-05-01 09:35 | 59.02350 | 32.97065 | 33389 ft | 469 kts | 124° |
| 2026-05-01 09:35 | 59.00598 | 33.02372 | 33700 ft | 469 kts | 125° |
| 2026-05-01 09:36 | 58.98834 | 33.07695 | 33959 ft | 470 kts | 125° |
| 2026-05-01 09:36 | 58.97047 | 33.13066 | 34198 ft | 472 kts | 125° |
| 2026-05-01 09:36 | 58.95268 | 33.18394 | 34431 ft | 474 kts | 126° |
| 2026-05-01 09:36 | 58.93401 | 33.23589 | 34669 ft | 473 kts | 129° |
| 2026-05-01 09:37 | 58.91362 | 33.28582 | 34897 ft | 473 kts | 133° |
| 2026-05-01 09:37 | 58.86847 | 33.37754 | 35119 ft | 474 kts | 139° |
| 2026-05-01 09:37 | 58.84448 | 33.42142 | 35121 ft | 475 kts | 139° |
| 2026-05-01 09:38 | 58.77211 | 33.55421 | 35116 ft | 481 kts | 139° |
| 2026-05-01 09:39 | 58.69971 | 33.68720 | 35113 ft | 482 kts | 139° |
| 2026-05-01 09:39 | 58.65137 | 33.77590 | 35114 ft | 481 kts | 139° |
| 2026-05-01 09:40 | 58.57874 | 33.90816 | 35114 ft | 482 kts | 140° |
| 2026-05-01 09:41 | 58.53011 | 33.99617 | 35114 ft | 481 kts | 140° |
| 2026-05-01 09:41 | 58.45713 | 34.12763 | 35114 ft | 482 kts | 140° |
| 2026-05-01 09:42 | 58.40870 | 34.21444 | 35114 ft | 481 kts | 140° |
| 2026-05-01 09:43 | 58.31102 | 34.38858 | 35114 ft | 482 kts | 140° |
| 2026-05-01 09:43 | 58.26189 | 34.47445 | 35117 ft | 481 kts | 142° |
| 2026-05-01 09:44 | 58.18255 | 34.58844 | 35132 ft | 478 kts | 147° |
| 2026-05-01 09:45 | 58.12842 | 34.66127 | 35143 ft | 478 kts | 148° |
| 2026-05-01 09:45 | 58.04772 | 34.77048 | 35158 ft | 477 kts | 148° |
| 2026-05-01 09:46 | 57.99398 | 34.84294 | 35163 ft | 478 kts | 148° |
| 2026-05-01 09:46 | 57.93975 | 34.91566 | 35165 ft | 480 kts | 147° |
| 2026-05-01 09:47 | 57.88579 | 34.98780 | 35165 ft | 481 kts | 147° |
| 2026-05-01 09:47 | 57.83108 | 35.06034 | 35165 ft | 482 kts | 147° |
| 2026-05-01 09:48 | 57.77660 | 35.13258 | 35165 ft | 482 kts | 147° |
| 2026-05-01 09:48 | 57.72176 | 35.20505 | 35166 ft | 482 kts | 147° |
| 2026-05-01 09:49 | 57.66695 | 35.27723 | 35166 ft | 483 kts | 147° |
| 2026-05-01 09:49 | 57.61235 | 35.34892 | 35166 ft | 483 kts | 147° |
| 2026-05-01 09:50 | 57.55752 | 35.42062 | 35166 ft | 482 kts | 147° |
| 2026-05-01 09:50 | 57.50281 | 35.49189 | 35167 ft | 482 kts | 147° |
| 2026-05-01 09:51 | 57.44807 | 35.56295 | 35165 ft | 482 kts | 147° |
| 2026-05-01 09:51 | 57.39317 | 35.63395 | 35166 ft | 482 kts | 147° |
| 2026-05-01 09:52 | 57.33797 | 35.70526 | 35166 ft | 482 kts | 147° |
| 2026-05-01 09:52 | 57.28310 | 35.77595 | 35165 ft | 482 kts | 147° |
| 2026-05-01 09:53 | 57.22792 | 35.84660 | 35165 ft | 483 kts | 147° |
| 2026-05-01 09:53 | 57.17300 | 35.91659 | 35167 ft | 482 kts | 147° |
| 2026-05-01 09:54 | 57.11800 | 35.98642 | 35165 ft | 482 kts | 147° |
| 2026-05-01 09:54 | 57.06255 | 36.05644 | 35164 ft | 484 kts | 147° |
| 2026-05-01 09:55 | 57.00730 | 36.12600 | 35166 ft | 486 kts | 146° |
| 2026-05-01 09:55 | 56.95186 | 36.19558 | 35167 ft | 486 kts | 145° |
| 2026-05-01 09:56 | 56.89600 | 36.26560 | 35164 ft | 486 kts | 145° |
| 2026-05-01 09:56 | 56.84051 | 36.33453 | 35166 ft | 485 kts | 145° |
| 2026-05-01 09:57 | 56.78466 | 36.40371 | 35166 ft | 485 kts | 145° |
| 2026-05-01 09:57 | 56.72913 | 36.47248 | 35166 ft | 485 kts | 145° |
| 2026-05-01 09:58 | 56.67339 | 36.54133 | 35166 ft | 485 kts | 145° |
| 2026-05-01 09:58 | 56.61740 | 36.61021 | 35166 ft | 485 kts | 145° |
| 2026-05-01 09:59 | 56.56093 | 36.67630 | 35166 ft | 485 kts | 149° |
| 2026-05-01 09:59 | 56.50324 | 36.73909 | 35164 ft | 485 kts | 149° |
| 2026-05-01 10:00 | 56.44595 | 36.80333 | 35167 ft | 485 kts | 147° |
| 2026-05-01 10:00 | 56.38897 | 36.86862 | 35166 ft | 485 kts | 148° |
| 2026-05-01 10:01 | 56.33197 | 36.93343 | 35166 ft | 485 kts | 148° |
| 2026-05-01 10:01 | 56.27507 | 36.99765 | 35165 ft | 486 kts | 148° |
| 2026-05-01 10:02 | 56.21783 | 37.06196 | 35165 ft | 487 kts | 147° |
| 2026-05-01 10:02 | 56.16025 | 37.12641 | 35165 ft | 489 kts | 147° |
| 2026-05-01 10:03 | 56.10258 | 37.19075 | 35165 ft | 490 kts | 147° |
| 2026-05-01 10:03 | 56.04458 | 37.25526 | 35165 ft | 491 kts | 147° |
| 2026-05-01 10:04 | 55.98670 | 37.31944 | 35165 ft | 491 kts | 147° |
| 2026-05-01 10:04 | 55.92905 | 37.38309 | 35165 ft | 491 kts | 147° |
| 2026-05-01 10:05 | 55.87077 | 37.44714 | 35165 ft | 491 kts | 147° |
| 2026-05-01 10:05 | 55.81287 | 37.51028 | 35166 ft | 491 kts | 147° |
| 2026-05-01 10:06 | 55.75463 | 37.57391 | 35168 ft | 491 kts | 147° |
| 2026-05-01 10:06 | 55.69652 | 37.63728 | 35174 ft | 491 kts | 147° |
| 2026-05-01 10:07 | 55.63810 | 37.69915 | 35183 ft | 491 kts | 151° |
| 2026-05-01 10:07 | 55.57795 | 37.75615 | 35189 ft | 491 kts | 151° |
| 2026-05-01 10:08 | 55.48818 | 37.84098 | 35193 ft | 492 kts | 151° |
| 2026-05-01 10:09 | 55.42782 | 37.89777 | 35193 ft | 491 kts | 151° |
| 2026-05-01 10:09 | 55.36815 | 37.95718 | 35193 ft | 491 kts | 146° |
| 2026-05-01 10:10 | 55.31088 | 38.02133 | 35194 ft | 491 kts | 146° |
| 2026-05-01 10:10 | 55.22469 | 38.11751 | 35194 ft | 491 kts | 146° |
| 2026-05-01 10:11 | 55.16732 | 38.18121 | 35195 ft | 491 kts | 146° |
| 2026-05-01 10:11 | 55.10962 | 38.24507 | 35195 ft | 491 kts | 146° |
| 2026-05-01 10:12 | 55.05201 | 38.30860 | 35194 ft | 491 kts | 146° |
| 2026-05-01 10:13 | 54.96566 | 38.40348 | 35195 ft | 490 kts | 147° |
| 2026-05-01 10:13 | 54.90844 | 38.46610 | 35195 ft | 489 kts | 147° |
| 2026-05-01 10:14 | 54.82212 | 38.55967 | 35194 ft | 488 kts | 147° |
| 2026-05-01 10:14 | 54.76469 | 38.62179 | 35193 ft | 488 kts | 147° |
| 2026-05-01 10:15 | 54.70719 | 38.68404 | 35193 ft | 488 kts | 148° |
| 2026-05-01 10:15 | 54.64960 | 38.74639 | 35194 ft | 488 kts | 148° |
| 2026-05-01 10:16 | 54.59232 | 38.80802 | 35194 ft | 488 kts | 148° |
| 2026-05-01 10:17 | 54.50609 | 38.90028 | 35193 ft | 488 kts | 148° |
| 2026-05-01 10:17 | 54.42362 | 39.00155 | 35193 ft | 488 kts | 135° |
| 2026-05-01 10:18 | 54.37951 | 39.08958 | 35192 ft | 486 kts | 122° |
| 2026-05-01 10:18 | 54.36196 | 39.13834 | 35192 ft | 484 kts | 115° |
| 2026-05-01 10:19 | 54.33479 | 39.24341 | 35195 ft | 480 kts | 108° |
| 2026-05-01 10:19 | 54.31005 | 39.34930 | 35195 ft | 481 kts | 109° |
| 2026-05-01 10:20 | 54.27186 | 39.50685 | 35195 ft | 481 kts | 109° |
| 2026-05-01 10:20 | 54.24599 | 39.61248 | 35195 ft | 481 kts | 109° |
| 2026-05-01 10:21 | 54.20725 | 39.76994 | 35194 ft | 481 kts | 110° |
| 2026-05-01 10:22 | 54.16816 | 39.92752 | 35195 ft | 481 kts | 110° |
| 2026-05-01 10:23 | 54.12886 | 40.08488 | 35194 ft | 481 kts | 109° |
| 2026-05-01 10:23 | 54.09711 | 40.24616 | 35194 ft | 478 kts | 103° |
| 2026-05-01 10:24 | 54.05973 | 40.46211 | 35195 ft | 478 kts | 103° |
| 2026-05-01 10:25 | 54.02174 | 40.67809 | 35195 ft | 478 kts | 103° |
| 2026-05-01 10:26 | 54.00256 | 40.78617 | 35194 ft | 478 kts | 103° |
| 2026-05-01 10:27 | 53.96386 | 41.00171 | 35195 ft | 477 kts | 102° |
| 2026-05-01 10:28 | 53.93642 | 41.16370 | 35195 ft | 476 kts | 100° |
| 2026-05-01 10:28 | 53.91011 | 41.32535 | 35195 ft | 476 kts | 100° |
| 2026-05-01 10:29 | 53.88289 | 41.48790 | 35193 ft | 476 kts | 101° |
| 2026-05-01 10:30 | 53.84661 | 41.70308 | 35194 ft | 476 kts | 101° |
| 2026-05-01 10:31 | 53.80979 | 41.91824 | 35195 ft | 477 kts | 101° |
| 2026-05-01 10:32 | 53.78206 | 42.07856 | 35194 ft | 476 kts | 101° |
| 2026-05-01 10:33 | 53.74457 | 42.29374 | 35193 ft | 476 kts | 101° |